KGRF/GRF METAR and TAF weather

Enter ICAO airport designator
Station Type Date Time Source
KGRF METAR 2022/12/10 01:58 UTC NOAA

KGRF 100158Z 09007KT 10SM -RA BKN025 05/03 A2956 RMK A02A SLPNO P0000 RVRNO $


Station Type Date Time Source
KGRF Decoded METAR 2022/12/10 01:58 UTC NOAA

Fort Lewis / Gray U. S. Army Airfield, WA, United States (KGRF) 47-07N 122-33W 87M
Dec 09, 2022 - 08:58 PM EST / 2022.12.10 0158 UTC
Wind: from the E (090 degrees) at 8 MPH (7 KT):0
Visibility: 10 mile(s):0
Sky conditions: mostly cloudy
Weather: light rain
Precipitation last hour: A trace
Temperature: 41 F (5 C)
Dew Point: 37 F (3 C)
Relative Humidity: 86%
Pressure (altimeter): 29.56 in. Hg (1001 hPa)
ob: KGRF 100158Z 09007KT 10SM -RA BKN025 05/03 A2956 RMK A02A SLPNO P0000 RVRNO
cycle: 2

Station Type Date Time Source
KGRF TAF 2022/12/09 21:22 UTC NOAA

TAF KGRF 092110Z 0921/1103 15012KT 9999 -RA BKN022 OVC040 650229 520104 QNH2946INS
BECMG 1003/1004 15010KT 9000 -RA SCT020 OVC030 650309 530005 QNH2925INS
BECMG 1011/1012 17014KT 9999 NSW BKN025 OVC035 620449 520104 QNH2924INS
BECMG 1020/1021 18014G28KT 9999 SCT030 BKN045 OVC060 620459 520003 QNH2926INS
BECMG 1023/1024 20011G22KT 9999 -SHRA FEW012 BKN020 OVC040 610303 510002 QNH2931INS TX09/1009Z TN06/0922Z

Example: see airport list